CheckWX is a tool to help pilots better visualize weather data.  It is not intended as a substitute for an official pre-flight weather briefing.

09:42:53 UTC

VTBS TAF
Suvarnabhumi Airport
Bangkok, Thailand
TAF VTBS 200500Z 2006/2112 19008KT 9999 FEW020

Feb-20@
06:00 UTC

Feb-20 @ 06:00 UTC

Feb-21@
12:00 UTC

Feb-21 @ 12:00 UTC

TAF VTBS 200500Z 2006/2112 19008KT 9999 FEW020
Wind
  • 190° at 8 KTS
Visibility
10,000+ meters
Cloud Levels
  • Few at 2,000' AGL